createdAt,value
2023-04-28T00:00:37.827Z,13.73
2023-04-28T00:03:01.259Z,11.07
2023-04-28T00:05:25.185Z,13.77
2023-04-28T00:07:48.513Z,13.63
2023-04-28T00:10:12.187Z,12.77
2023-04-28T00:12:35.493Z,18.05
2023-04-28T00:14:58.727Z,17.25
2023-04-28T00:17:23.568Z,12.50
2023-04-28T00:19:46.955Z,11.77
2023-04-28T00:22:10.266Z,12.27
2023-04-28T00:24:33.891Z,13.60
2023-04-28T00:26:58.815Z,14.82
2023-04-28T00:29:22.175Z,15.05
2023-04-28T00:31:46.475Z,17.65
2023-04-28T00:34:14.405Z,12.85
2023-04-28T00:36:38.137Z,16.08
2023-04-28T00:39:01.446Z,15.38
2023-04-28T00:41:24.850Z,16.60
2023-04-28T00:43:49.504Z,15.93
2023-04-28T00:46:22.542Z,16.77
2023-04-28T00:48:46.159Z,19.10
2023-04-28T00:51:10.857Z,19.40
2023-04-28T00:53:35.391Z,19.83
2023-04-28T00:55:59.373Z,16.38
2023-04-28T00:58:22.792Z,19.25
2023-04-28T01:00:46.695Z,21.33
2023-04-28T01:03:10.591Z,19.80
2023-04-28T01:05:34.853Z,19.05
2023-04-28T01:07:59.830Z,17.90
2023-04-28T01:10:23.248Z,18.13
2023-04-28T01:12:48.216Z,17.27
2023-04-28T01:15:18.818Z,21.58
2023-04-28T01:17:44.825Z,16.23
2023-04-28T01:20:11.398Z,20.63
2023-04-28T01:22:34.782Z,17.02
2023-04-28T01:25:00.284Z,20.20
2023-04-28T01:27:25.076Z,20.60
2023-04-28T01:29:48.369Z,20.35
2023-04-28T01:32:11.901Z,20.35
2023-04-28T01:34:37.077Z,16.30
2023-04-28T01:37:02.571Z,18.90
2023-04-28T01:39:25.978Z,19.08
2023-04-28T01:41:50.615Z,18.17
2023-04-28T01:44:14.259Z,19.60
2023-04-28T01:46:38.075Z,21.25
2023-04-28T01:49:01.572Z,20.50
2023-04-28T01:51:26.846Z,18.23
2023-04-28T01:53:50.131Z,22.38
2023-04-28T01:56:13.405Z,17.77
2023-04-28T01:58:38.860Z,17.25
2023-04-28T02:01:04.829Z,19.08
2023-04-28T02:03:29.038Z,21.30
2023-04-28T02:05:52.476Z,17.13
2023-04-28T02:08:15.797Z,22.25
2023-04-28T02:10:39.309Z,22.55
2023-04-28T02:13:02.705Z,21.05
2023-04-28T02:15:27.862Z,20.08
2023-04-28T02:17:51.252Z,19.08
2023-04-28T02:20:15.406Z,18.75
2023-04-28T02:22:38.772Z,21.90
2023-04-28T02:25:03.350Z,20.33
2023-04-28T02:27:27.027Z,15.50
2023-04-28T02:29:52.627Z,20.08
2023-04-28T02:32:17.264Z,16.67
2023-04-28T02:34:40.507Z,20.13
2023-04-28T02:37:04.386Z,19.52
2023-04-28T02:39:28.143Z,16.60
2023-04-28T02:41:53.332Z,17.77
2023-04-28T02:44:16.690Z,13.43
2023-04-28T02:46:40.120Z,15.35
2023-04-28T02:49:04.927Z,19.23
2023-04-28T02:51:28.603Z,18.00
2023-04-28T02:53:52.372Z,16.05
2023-04-28T02:56:15.700Z,18.23
2023-04-28T02:58:39.041Z,20.05
2023-04-28T03:01:02.381Z,27.05
2023-04-28T03:03:26.026Z,39.47
2023-04-28T03:05:50.741Z,34.78
2023-04-28T03:08:14.451Z,27.75
2023-04-28T03:10:39.162Z,47.33
2023-04-28T03:13:02.511Z,25.52
2023-04-28T03:15:26.730Z,21.50
2023-04-28T03:17:50.187Z,15.65
2023-04-28T03:20:14.818Z,16.02
2023-04-28T03:22:39.510Z,14.43
2023-04-28T03:25:02.945Z,19.58
2023-04-28T03:27:30.606Z,12.98
2023-04-28T03:29:54.425Z,14.63
2023-04-28T03:32:17.855Z,16.95
2023-04-28T03:34:41.635Z,16.35
2023-04-28T03:37:04.885Z,16.75
2023-04-28T03:39:29.507Z,17.05
2023-04-28T03:41:52.833Z,15.32
2023-04-28T03:44:34.370Z,14.50
2023-04-28T03:46:58.304Z,14.10
2023-04-28T03:49:21.693Z,12.95
2023-04-28T03:51:44.924Z,14.20
2023-04-28T03:54:08.439Z,14.75
2023-04-28T03:56:33.913Z,14.43
2023-04-28T03:58:58.657Z,12.70
2023-04-28T04:01:21.827Z,14.52
2023-04-28T04:03:45.589Z,13.85
2023-04-28T04:06:09.380Z,15.75
2023-04-28T04:08:33.286Z,15.82
2023-04-28T04:10:56.891Z,16.92
2023-04-28T04:13:21.849Z,16.27
2023-04-28T04:15:45.234Z,14.07
2023-04-28T04:18:08.737Z,17.67
2023-04-28T04:20:55.921Z,12.30
2023-04-28T04:23:19.734Z,16.75
2023-04-28T04:25:43.237Z,14.82
2023-04-28T04:28:07.306Z,14.15
2023-04-28T04:30:31.935Z,15.52
2023-04-28T04:32:55.212Z,15.98
2023-04-28T04:35:19.032Z,15.77
2023-04-28T04:37:42.973Z,12.50
2023-04-28T04:40:08.535Z,16.88
2023-04-28T04:42:38.024Z,15.75
2023-04-28T04:45:09.246Z,15.90
2023-04-28T04:47:34.394Z,16.50
2023-04-28T04:49:57.891Z,12.02
2023-04-28T04:52:21.260Z,21.27
2023-04-28T04:54:44.424Z,13.80
2023-04-28T04:57:08.130Z,15.00
2023-04-28T04:59:53.868Z,13.77
2023-04-28T05:02:17.699Z,15.40
2023-04-28T05:04:42.694Z,14.85
2023-04-28T05:07:07.293Z,13.63
2023-04-28T05:09:32.059Z,11.15
2023-04-28T05:11:56.754Z,16.17
2023-04-28T05:14:20.044Z,12.50
2023-04-28T05:16:43.672Z,13.35
2023-04-28T05:19:27.279Z,13.55
2023-04-28T05:21:54.608Z,12.43
2023-04-28T05:24:22.073Z,14.43
2023-04-28T05:26:45.564Z,14.52
2023-04-28T05:29:09.044Z,11.63
2023-04-28T05:31:32.493Z,15.80
2023-04-28T05:33:56.542Z,16.52
2023-04-28T05:36:20.132Z,13.00
2023-04-28T05:38:45.445Z,11.63
2023-04-28T05:41:08.967Z,12.63
2023-04-28T05:43:32.287Z,13.02
2023-04-28T05:45:55.885Z,14.90
2023-04-28T05:48:19.482Z,13.55
2023-04-28T05:50:42.828Z,12.30
2023-04-28T05:53:07.819Z,15.57
2023-04-28T05:55:33.804Z,11.77
2023-04-28T05:57:57.047Z,11.68
2023-04-28T06:00:21.761Z,14.07
2023-04-28T06:02:45.418Z,16.83
2023-04-28T06:05:10.729Z,14.43
2023-04-28T06:07:34.305Z,12.00
2023-04-28T06:09:57.557Z,12.90
2023-04-28T06:12:22.338Z,12.85
2023-04-28T06:14:47.369Z,13.98
2023-04-28T06:17:10.677Z,11.73
2023-04-28T06:19:33.983Z,12.35
2023-04-28T06:21:57.300Z,12.18
2023-04-28T06:24:21.047Z,12.60
2023-04-28T06:26:49.091Z,14.95
2023-04-28T06:29:13.831Z,13.63
2023-04-28T06:31:37.465Z,13.80
2023-04-28T06:34:01.187Z,15.07
2023-04-28T06:36:24.731Z,10.35
2023-04-28T06:38:48.201Z,12.10
2023-04-28T06:41:12.320Z,12.68
2023-04-28T06:43:37.429Z,10.23
2023-04-28T06:46:06.639Z,11.68
2023-04-28T06:48:30.221Z,14.07
2023-04-28T06:50:53.678Z,14.18
2023-04-28T06:53:19.076Z,12.02
2023-04-28T06:55:42.693Z,13.75
2023-04-28T06:58:06.075Z,10.80
2023-04-28T07:00:30.606Z,13.57
2023-04-28T07:02:55.523Z,11.18
2023-04-28T07:05:19.107Z,13.10
2023-04-28T07:07:42.561Z,13.45
2023-04-28T07:10:06.969Z,13.50
2023-04-28T07:12:30.191Z,13.80
2023-04-28T07:14:53.384Z,11.93
2023-04-28T07:17:16.729Z,12.70
2023-04-28T07:19:41.392Z,14.52
2023-04-28T07:22:04.811Z,17.08
2023-04-28T07:24:28.452Z,12.20
2023-04-28T07:26:52.179Z,14.68
2023-04-28T07:29:16.225Z,14.63
2023-04-28T07:31:39.463Z,15.27
2023-04-28T07:34:02.801Z,14.27
2023-04-28T07:36:27.431Z,15.60
2023-04-28T07:38:50.940Z,15.63
2023-04-28T07:41:14.216Z,13.57
2023-04-28T07:43:37.494Z,11.93
2023-04-28T07:46:00.889Z,13.30
2023-04-28T07:48:24.326Z,14.57
2023-04-28T07:50:47.655Z,16.58
2023-04-28T07:53:12.407Z,11.40
2023-04-28T07:55:36.539Z,15.13
2023-04-28T07:58:00.022Z,11.75
2023-04-28T08:00:23.420Z,11.65
2023-04-28T08:02:46.770Z,13.88
2023-04-28T08:05:11.372Z,12.85
2023-04-28T08:07:34.862Z,13.15
2023-04-28T08:09:59.746Z,14.13
2023-04-28T08:12:23.114Z,11.35
2023-04-28T08:14:46.428Z,12.82
2023-04-28T08:17:09.998Z,12.30
2023-04-28T08:19:33.672Z,11.60
2023-04-28T08:21:56.949Z,14.15
2023-04-28T08:24:20.338Z,17.35
2023-04-28T08:26:44.973Z,12.75
2023-04-28T08:29:08.649Z,11.73
2023-04-28T08:31:32.039Z,12.32
2023-04-28T08:33:55.767Z,12.35
2023-04-28T08:36:19.312Z,15.65
2023-04-28T08:38:42.645Z,16.88
2023-04-28T08:41:06.442Z,19.38
2023-04-28T08:43:31.145Z,12.07
2023-04-28T08:45:54.776Z,17.65
2023-04-28T08:48:21.288Z,17.52
2023-04-28T08:50:51.003Z,19.45
2023-04-28T08:53:18.147Z,14.30
2023-04-28T08:55:41.577Z,14.52
2023-04-28T08:58:05.746Z,14.68
2023-04-28T09:00:30.284Z,10.88
2023-04-28T09:02:53.688Z,12.02
2023-04-28T09:05:17.263Z,14.18
2023-04-28T09:07:41.265Z,11.77
2023-04-28T09:10:26.496Z,15.48
2023-04-28T09:12:53.101Z,11.50
2023-04-28T09:15:33.983Z,15.95
2023-04-28T09:17:58.212Z,16.50
2023-04-28T09:20:22.886Z,16.38
2023-04-28T09:22:46.234Z,11.07
2023-04-28T09:25:13.377Z,14.38
2023-04-28T09:27:36.747Z,12.27
2023-04-28T09:30:00.131Z,12.90
2023-04-28T09:32:27.673Z,11.88
2023-04-28T09:34:53.785Z,15.30
2023-04-28T09:37:19.769Z,14.68
2023-04-28T09:39:43.053Z,14.45
2023-04-28T09:42:06.708Z,14.23
2023-04-28T09:44:30.032Z,12.25
2023-04-28T09:46:53.303Z,13.30
2023-04-28T09:49:17.870Z,14.07
2023-04-28T09:51:41.569Z,16.17
2023-04-28T09:54:05.393Z,15.23
2023-04-28T09:56:29.757Z,13.10
2023-04-28T09:58:55.207Z,17.23
2023-04-28T10:01:19.280Z,15.13
2023-04-28T10:03:44.356Z,16.20
2023-04-28T10:06:09.430Z,15.38
2023-04-28T10:08:32.623Z,16.67
2023-04-28T10:10:56.963Z,22.25
2023-04-28T10:13:21.177Z,17.00
2023-04-28T10:15:44.554Z,17.10
2023-04-28T10:18:08.713Z,17.23
2023-04-28T10:20:32.566Z,13.82
2023-04-28T10:23:08.442Z,15.88
2023-04-28T10:25:37.110Z,18.08
2023-04-28T10:28:02.310Z,20.23
2023-04-28T10:30:29.687Z,19.88
2023-04-28T10:33:27.362Z,17.33
2023-04-28T10:35:50.817Z,19.38
2023-04-28T10:38:17.685Z,18.58
2023-04-28T10:40:42.415Z,16.77
2023-04-28T10:43:06.671Z,19.27
2023-04-28T10:46:02.550Z,19.27
2023-04-28T10:49:06.814Z,22.02
2023-04-28T10:51:34.762Z,17.80
2023-04-28T10:54:28.205Z,17.00
2023-04-28T10:57:24.974Z,17.75
2023-04-28T10:59:50.328Z,17.17
2023-04-28T11:02:44.778Z,18.48
2023-04-28T11:05:18.821Z,20.92
2023-04-28T11:07:42.820Z,18.35
2023-04-28T11:10:09.018Z,18.52
2023-04-28T11:12:32.414Z,18.05
2023-04-28T11:14:56.139Z,16.77
2023-04-28T11:17:22.818Z,18.95
2023-04-28T11:19:48.526Z,17.13
2023-04-28T11:22:16.973Z,18.30
2023-04-28T11:24:40.553Z,17.75
2023-04-28T11:27:05.406Z,15.48
2023-04-28T11:29:37.345Z,17.50
2023-04-28T11:32:01.053Z,16.35
2023-04-28T11:34:26.841Z,15.07
2023-04-28T11:36:50.451Z,14.30
2023-04-28T11:39:15.486Z,13.30
2023-04-28T11:41:40.834Z,12.90
2023-04-28T11:44:13.554Z,12.55
2023-04-28T11:46:36.888Z,11.88
2023-04-28T11:49:05.947Z,13.88
2023-04-28T11:51:38.182Z,13.95
2023-04-28T11:54:02.576Z,14.07
2023-04-28T11:56:26.537Z,12.85
2023-04-28T11:59:05.460Z,11.40
2023-04-28T12:01:30.093Z,12.00
2023-04-28T12:03:53.470Z,12.63
2023-04-28T12:06:19.708Z,11.38
2023-04-28T12:08:43.039Z,10.35
2023-04-28T12:11:10.859Z,10.80
2023-04-28T12:13:36.275Z,10.52
2023-04-28T12:16:01.964Z,11.07
2023-04-28T12:18:26.700Z,10.82
2023-04-28T12:20:50.185Z,10.30
2023-04-28T12:23:13.501Z,13.45
2023-04-28T12:25:45.673Z,9.55
2023-04-28T12:28:10.643Z,10.07
2023-04-28T12:30:36.172Z,10.50
2023-04-28T12:32:59.534Z,9.82
2023-04-28T12:35:25.406Z,9.45
2023-04-28T12:37:48.685Z,10.45
2023-04-28T12:40:14.485Z,8.90
2023-04-28T12:42:37.956Z,8.32
2023-04-28T12:45:01.430Z,7.97
2023-04-28T12:47:24.900Z,9.35
2023-04-28T12:49:50.666Z,8.63
2023-04-28T12:52:15.466Z,9.63
2023-04-28T12:54:38.732Z,8.85
2023-04-28T12:57:02.073Z,8.73
2023-04-28T12:59:25.915Z,7.97
2023-04-28T13:01:49.549Z,7.63
2023-04-28T13:04:13.103Z,9.15
2023-04-28T13:06:36.688Z,7.95
2023-04-28T13:09:01.405Z,8.15
2023-04-28T13:11:27.179Z,8.00
2023-04-28T13:13:51.197Z,7.40
2023-04-28T13:16:15.407Z,6.85
2023-04-28T13:18:38.701Z,7.82
2023-04-28T13:21:01.968Z,7.55
2023-04-28T13:23:25.231Z,8.48
2023-04-28T13:25:49.864Z,8.07
2023-04-28T13:28:13.576Z,8.10
2023-04-28T13:30:36.857Z,9.10
2023-04-28T13:33:00.193Z,6.82
2023-04-28T13:35:23.564Z,7.13
2023-04-28T13:37:47.090Z,8.27
2023-04-28T13:40:12.228Z,7.60
2023-04-28T13:42:36.895Z,7.32
2023-04-28T13:45:00.166Z,6.57
2023-04-28T13:47:24.513Z,6.95
2023-04-28T13:49:47.873Z,6.18
2023-04-28T13:52:11.086Z,5.68
2023-04-28T13:54:34.729Z,5.10
2023-04-28T13:56:58.218Z,5.82
2023-04-28T13:59:22.863Z,4.82
2023-04-28T14:01:46.278Z,4.75
2023-04-28T14:04:09.667Z,6.25
2023-04-28T14:06:34.726Z,3.53
2023-04-28T14:08:58.227Z,5.53
2023-04-28T14:11:21.552Z,3.78
2023-04-28T14:13:44.890Z,3.00
2023-04-28T14:16:09.934Z,2.95
2023-04-28T14:18:34.419Z,4.25
2023-04-28T14:20:57.937Z,7.97
2023-04-28T14:23:21.425Z,2.97
2023-04-28T14:25:44.742Z,3.85
2023-04-28T14:28:08.052Z,3.75
2023-04-28T14:30:31.461Z,2.33
2023-04-28T14:32:56.138Z,2.33
2023-04-28T14:35:20.887Z,2.33
2023-04-28T14:37:44.893Z,2.38
2023-04-28T14:40:10.040Z,1.65
2023-04-28T14:42:36.247Z,1.52
2023-04-28T14:44:59.589Z,3.25
2023-04-28T14:47:22.947Z,1.63
2023-04-28T14:49:48.821Z,2.53
2023-04-28T14:52:12.580Z,1.70
2023-04-28T14:54:36.120Z,2.95
2023-04-28T14:57:00.098Z,2.53
2023-04-28T14:59:23.349Z,5.10
2023-04-28T15:01:47.128Z,3.53
2023-04-28T15:04:10.778Z,3.50
2023-04-28T15:06:35.517Z,3.58
2023-04-28T15:08:58.904Z,4.22
2023-04-28T15:11:22.237Z,5.97
2023-04-28T15:13:45.450Z,6.28
2023-04-28T15:16:11.266Z,8.32
2023-04-28T15:18:34.821Z,8.15
2023-04-28T15:20:58.304Z,8.32
2023-04-28T15:23:22.886Z,9.20
2023-04-28T15:25:46.695Z,8.13
2023-04-28T15:28:10.288Z,7.97
2023-04-28T15:30:33.544Z,6.90
2023-04-28T15:32:56.955Z,6.53
2023-04-28T15:35:20.518Z,5.35
2023-04-28T15:37:47.314Z,5.38
2023-04-28T15:40:14.777Z,4.88
2023-04-28T15:42:38.660Z,5.15
2023-04-28T15:45:02.890Z,22.58
2023-04-28T15:47:26.191Z,6.60
2023-04-28T15:49:50.224Z,3.53
2023-04-28T15:52:14.068Z,3.67
2023-04-28T15:54:37.304Z,4.10
2023-04-28T15:57:02.002Z,3.95
2023-04-28T15:59:25.244Z,3.70
2023-04-28T16:01:48.643Z,4.20
2023-04-28T16:04:12.007Z,3.92
2023-04-28T16:06:35.363Z,4.50
2023-04-28T16:08:58.633Z,6.13
2023-04-28T16:11:22.016Z,4.93
2023-04-28T16:13:47.032Z,7.10
2023-04-28T16:16:11.995Z,5.28
2023-04-28T16:18:35.535Z,5.35
2023-04-28T16:20:58.840Z,5.30
2023-04-28T16:23:22.309Z,5.60
2023-04-28T16:25:45.581Z,6.13
2023-04-28T16:28:08.880Z,5.68
2023-04-28T16:30:34.120Z,6.25
2023-04-28T16:32:58.498Z,6.75
2023-04-28T16:35:22.158Z,6.00
2023-04-28T16:37:45.382Z,6.55
2023-04-28T16:40:10.695Z,7.35
2023-04-28T16:42:33.888Z,7.45
2023-04-28T16:44:58.494Z,8.02
2023-04-28T16:47:23.369Z,9.75
2023-04-28T16:49:46.737Z,9.30
2023-04-28T16:52:09.986Z,9.93
2023-04-28T16:54:34.450Z,10.25
2023-04-28T16:56:57.844Z,9.85
2023-04-28T16:59:21.132Z,9.52
2023-04-28T17:01:44.907Z,9.00
2023-04-28T17:04:09.748Z,8.90
2023-04-28T17:06:33.600Z,8.73
2023-04-28T17:08:56.883Z,7.15
2023-04-28T17:11:20.114Z,8.00
2023-04-28T17:13:43.447Z,8.18
2023-04-28T17:16:07.064Z,7.18
2023-04-28T17:18:31.128Z,8.95
2023-04-28T17:20:57.677Z,8.30
2023-04-28T17:23:20.968Z,7.95
2023-04-28T17:25:44.403Z,7.35
2023-04-28T17:28:07.743Z,8.52
2023-04-28T17:30:31.135Z,9.13
2023-04-28T17:32:55.811Z,7.53
2023-04-28T17:35:19.256Z,7.50
2023-04-28T17:37:43.886Z,7.68
2023-04-28T17:40:08.711Z,7.57
2023-04-28T17:42:32.590Z,8.02
2023-04-28T17:44:55.930Z,7.78
2023-04-28T17:47:19.256Z,8.15
2023-04-28T17:49:42.526Z,8.00
2023-04-28T17:52:05.978Z,8.45
2023-04-28T17:54:32.028Z,8.68
2023-04-28T17:56:55.916Z,8.25
2023-04-28T17:59:19.227Z,8.93
2023-04-28T18:01:42.581Z,8.98
2023-04-28T18:04:05.980Z,9.57
2023-04-28T18:06:29.953Z,9.10
2023-04-28T18:08:53.227Z,9.75
2023-04-28T18:11:17.999Z,9.35
2023-04-28T18:13:41.390Z,10.43
2023-04-28T18:16:05.625Z,11.30
2023-04-28T18:18:30.661Z,10.45
2023-04-28T18:20:59.209Z,9.10
2023-04-28T18:23:23.385Z,10.00
2023-04-28T18:25:46.612Z,11.50
2023-04-28T18:28:11.448Z,10.18
2023-04-28T18:30:39.658Z,11.48
2023-04-28T18:33:02.959Z,10.43
2023-04-28T18:35:26.249Z,10.02
2023-04-28T18:37:52.013Z,10.57
2023-04-28T18:40:16.806Z,10.75
2023-04-28T18:42:40.080Z,10.60
2023-04-28T18:45:07.983Z,11.00
2023-04-28T18:47:32.002Z,10.70
2023-04-28T18:49:55.374Z,9.25
2023-04-28T18:52:18.709Z,11.75
2023-04-28T18:54:42.394Z,10.73
2023-04-28T18:57:06.576Z,11.20
2023-04-28T18:59:30.696Z,11.07
2023-04-28T19:01:55.966Z,9.95
2023-04-28T19:04:25.696Z,11.20
2023-04-28T19:06:51.109Z,13.77
2023-04-28T19:09:14.456Z,9.77
2023-04-28T19:11:37.747Z,11.80
2023-04-28T19:14:05.418Z,11.60
2023-04-28T19:16:28.861Z,9.65
2023-04-28T19:18:54.099Z,12.70
2023-04-28T19:21:17.480Z,10.20
2023-04-28T19:23:41.735Z,10.45
2023-04-28T19:26:05.108Z,10.35
2023-04-28T19:28:28.929Z,9.30
2023-04-28T19:30:52.207Z,8.73
2023-04-28T19:33:15.677Z,9.25
2023-04-28T19:35:40.415Z,10.73
2023-04-28T19:38:03.696Z,8.25
2023-04-28T19:40:28.246Z,11.25
2023-04-28T19:42:51.539Z,10.07
2023-04-28T19:45:17.003Z,9.88
2023-04-28T19:47:40.283Z,11.30
2023-04-28T19:50:05.166Z,12.15
2023-04-28T19:52:30.012Z,11.38
2023-04-28T19:54:53.592Z,11.40
2023-04-28T19:57:17.477Z,12.57
2023-04-28T19:59:41.082Z,13.50
2023-04-28T20:02:07.782Z,11.25
2023-04-28T20:04:31.204Z,13.10
2023-04-28T20:06:54.635Z,15.98
2023-04-28T20:09:19.292Z,14.32
2023-04-28T20:11:42.527Z,13.48
2023-04-28T20:14:05.804Z,13.43
2023-04-28T20:16:29.090Z,13.00
2023-04-28T20:18:52.666Z,12.65
2023-04-28T20:21:15.950Z,13.40
2023-04-28T20:23:39.256Z,13.40
2023-04-28T20:26:05.257Z,14.38
2023-04-28T20:28:28.540Z,14.45
2023-04-28T20:30:51.796Z,15.55
2023-04-28T20:33:16.056Z,12.88
2023-04-28T20:35:39.450Z,15.45
2023-04-28T20:38:02.786Z,15.43
2023-04-28T20:40:27.036Z,17.30
2023-04-28T20:42:51.829Z,15.88
2023-04-28T20:45:15.112Z,15.15
2023-04-28T20:47:38.426Z,16.52
2023-04-28T20:50:02.590Z,16.23
2023-04-28T20:52:25.850Z,17.08
2023-04-28T20:54:49.468Z,17.05
2023-04-28T20:57:12.801Z,15.20
2023-04-28T20:59:37.827Z,16.15
2023-04-28T21:02:01.275Z,14.98
2023-04-28T21:04:24.559Z,16.23
2023-04-28T21:06:50.278Z,17.15
2023-04-28T21:09:13.943Z,14.75
2023-04-28T21:11:37.258Z,15.30
2023-04-28T21:14:00.791Z,15.77
2023-04-28T21:16:25.368Z,16.75
2023-04-28T21:18:50.015Z,16.45
2023-04-28T21:21:13.729Z,14.88
2023-04-28T21:23:37.567Z,15.48
2023-04-28T21:26:00.759Z,14.68
2023-04-28T21:28:24.165Z,15.32
2023-04-28T21:30:47.454Z,16.38
2023-04-28T21:33:12.097Z,15.98
2023-04-28T21:35:36.627Z,15.30
2023-04-28T21:37:59.882Z,16.60
2023-04-28T21:40:23.319Z,15.60
2023-04-28T21:42:46.624Z,16.02
2023-04-28T21:45:11.380Z,15.85
2023-04-28T21:47:34.739Z,16.23
2023-04-28T21:49:59.357Z,17.08
2023-04-28T21:52:22.676Z,16.17
2023-04-28T21:54:45.988Z,15.75
2023-04-28T21:57:09.427Z,15.40
2023-04-28T21:59:33.341Z,17.40
2023-04-28T22:01:58.452Z,17.92
2023-04-28T22:04:21.950Z,18.25
2023-04-28T22:06:47.391Z,19.92
2023-04-28T22:09:10.644Z,17.40
2023-04-28T22:11:33.886Z,21.98
2023-04-28T22:13:57.094Z,25.20
2023-04-28T22:16:20.459Z,25.13
2023-04-28T22:18:44.119Z,26.55
2023-04-28T22:21:07.950Z,28.58
2023-04-28T22:23:32.685Z,27.13
2023-04-28T22:25:59.988Z,27.35
2023-04-28T22:28:23.428Z,31.58
2023-04-28T22:30:47.536Z,36.15
2023-04-28T22:33:11.042Z,36.47
2023-04-28T22:35:34.364Z,36.33
2023-04-28T22:37:57.591Z,38.72
2023-04-28T22:40:22.489Z,42.22
2023-04-28T22:42:46.445Z,40.05
2023-04-28T22:45:11.774Z,35.72
2023-04-28T22:47:35.534Z,39.70
2023-04-28T22:49:59.448Z,41.45
2023-04-28T22:52:23.581Z,38.72
2023-04-28T22:54:46.777Z,45.78
2023-04-28T22:57:11.576Z,40.80
2023-04-28T22:59:34.820Z,43.35
2023-04-28T23:01:58.122Z,42.47
2023-04-28T23:04:21.958Z,41.30
2023-04-28T23:06:45.423Z,41.05
2023-04-28T23:09:08.846Z,44.15
2023-04-28T23:11:32.127Z,37.83
2023-04-28T23:13:56.758Z,40.03
2023-04-28T23:16:20.074Z,39.70
2023-04-28T23:18:47.038Z,41.15
2023-04-28T23:21:10.319Z,42.53
2023-04-28T23:23:33.691Z,36.92
2023-04-28T23:25:57.004Z,37.15
2023-04-28T23:28:20.308Z,37.20
2023-04-28T23:30:45.241Z,38.20
2023-04-28T23:33:08.604Z,34.22
2023-04-28T23:35:32.877Z,41.08
2023-04-28T23:37:56.595Z,41.95
2023-04-28T23:40:20.125Z,43.53
2023-04-28T23:42:43.402Z,45.88
2023-04-28T23:45:08.443Z,57.85
2023-04-28T23:47:33.029Z,61.35
2023-04-28T23:49:56.321Z,67.13
2023-04-28T23:52:20.001Z,76.85
2023-04-28T23:54:43.284Z,77.32
2023-04-28T23:57:06.615Z,79.97
2023-04-28T23:59:29.923Z,81.70
